Time;durP1;ratioP1;P1;durP2;ratioP2;P2;SDS_P1;SDS_P2;PMS_P1;PMS_P2;Temp;Humidity;BMP_temperature;BMP_pressure;BME280_temperature;BME280_humidity;BME280_pressure;Samples;Min_cycle;Max_cycle;Signal;HPM_P1;HPM_P2
2023/02/12 00:01:19;;;;;;;7.85;6.22;;;6.00;99.90;;;;;;7379542;19;20308;-78
2023/02/12 00:03:45;;;;;;;7.47;6.43;;;6.00;99.90;;;;;;7380204;19;20695;-78
2023/02/12 00:06:11;;;;;;;7.20;6.30;;;6.00;99.90;;;;;;7381099;19;20445;-81
2023/02/12 00:08:37;;;;;;;9.63;6.03;;;6.00;99.90;;;;;;7381513;19;20316;-81
2023/02/12 00:11:16;;;;;;;8.40;6.65;;;6.00;99.90;;;;;;7379562;19;20354;-79
2023/02/12 00:13:43;;;;;;;6.70;5.80;;;6.00;99.90;;;;;;7277801;19;2019643;-78
2023/02/12 00:16:11;;;;;;;8.93;6.38;;;6.00;99.90;;;;;;7379308;19;20388;-85
2023/02/12 00:18:38;;;;;;;8.10;6.07;;;6.20;99.90;;;;;;7380583;19;20325;-81
2023/02/12 00:21:04;;;;;;;9.37;6.00;;;6.00;99.90;;;;;;7379337;19;21878;-79
2023/02/12 00:23:29;;;;;;;6.28;5.65;;;6.00;99.90;;;;;;7379866;19;20313;-81
2023/02/12 00:26:04;;;;;;;6.95;5.72;;;6.00;99.90;;;;;;7379629;19;20443;-78
2023/02/12 00:28:30;;;;;;;7.13;6.15;;;6.00;99.90;;;;;;7378800;19;20337;-81
2023/02/12 00:30:55;;;;;;;6.97;5.73;;;6.00;99.90;;;;;;7379446;19;20336;-81
2023/02/12 00:33:21;;;;;;;7.27;6.33;;;6.00;99.90;;;;;;7378670;19;20319;-80
2023/02/12 00:35:55;;;;;;;7.33;6.23;;;6.00;99.90;;;;;;7377849;19;20305;-80
2023/02/12 00:38:22;;;;;;;8.40;6.13;;;6.00;99.90;;;;;;7379038;19;20324;-79
2023/02/12 00:40:48;;;;;;;6.65;5.90;;;6.00;99.90;;;;;;7378713;19;20337;-80
2023/02/12 00:43:14;;;;;;;9.67;7.47;;;6.00;99.90;;;;;;7378592;19;20319;-83
2023/02/12 00:45:39;;;;;;;9.38;7.32;;;6.00;99.90;;;;;;7379357;19;20325;-78
2023/02/12 00:48:05;;;;;;;6.90;6.20;;;6.00;99.90;;;;;;7381018;19;20325;-79
2023/02/12 00:50:31;;;;;;;7.65;5.97;;;6.00;99.90;;;;;;7380146;19;20372;-81
2023/02/12 00:52:59;;;;;;;8.10;6.50;;;6.00;99.90;;;;;;7376093;19;20320;-79
2023/02/12 00:55:24;;;;;;;5.73;5.13;;;6.00;99.90;;;;;;7380857;19;20308;-82
2023/02/12 00:57:50;;;;;;;7.10;6.07;;;5.90;99.90;;;;;;7379333;19;20334;-80
2023/02/12 01:00:16;;;;;;;11.70;7.57;;;5.90;99.90;;;;;;7380592;19;20333;-78
2023/02/12 01:02:41;;;;;;;11.57;7.45;;;6.00;99.90;;;;;;7379474;19;20988;-78
2023/02/12 01:05:07;;;;;;;13.05;9.30;;;6.00;99.90;;;;;;7379866;19;20332;-81
2023/02/12 01:07:33;;;;;;;6.53;5.83;;;5.90;99.90;;;;;;7379347;19;20305;-82
2023/02/12 01:09:58;;;;;;;7.03;5.97;;;6.00;99.90;;;;;;7387562;19;20312;-81
2023/02/12 01:12:24;;;;;;;9.43;6.87;;;6.00;99.90;;;;;;7385289;19;20321;-80
2023/02/12 01:14:49;;;;;;;8.27;6.87;;;5.90;99.90;;;;;;7384684;19;21199;-81
2023/02/12 01:17:15;;;;;;;8.02;6.25;;;6.00;99.90;;;;;;7384311;19;20324;-81
2023/02/12 01:19:43;;;;;;;6.55;5.75;;;5.90;99.90;;;;;;7383323;19;20325;-79
2023/02/12 01:22:08;;;;;;;8.27;6.40;;;5.90;99.90;;;;;;7382564;19;20313;-78
2023/02/12 01:24:36;;;;;;;7.68;6.20;;;5.90;99.90;;;;;;7383553;19;20677;-79
2023/02/12 01:27:02;;;;;;;6.57;5.82;;;5.90;99.90;;;;;;7383951;19;20703;-81
2023/02/12 01:29:28;;;;;;;7.27;6.10;;;5.90;99.90;;;;;;7385293;19;20336;-81
2023/02/12 01:31:54;;;;;;;9.52;6.18;;;5.90;99.90;;;;;;7383709;19;20400;-78
2023/02/12 01:34:19;;;;;;;7.03;5.10;;;5.90;99.90;;;;;;7382681;19;21225;-79
2023/02/12 01:36:45;;;;;;;7.20;5.65;;;5.90;99.90;;;;;;7384430;19;20438;-81
2023/02/12 01:39:10;;;;;;;6.73;5.73;;;5.90;99.90;;;;;;7384204;19;21031;-82
2023/02/12 01:41:39;;;;;;;6.53;5.47;;;5.90;99.90;;;;;;7384556;19;20312;-80
2023/02/12 01:44:05;;;;;;;8.27;5.72;;;5.90;99.90;;;;;;7383518;19;20747;-78
2023/02/12 01:46:30;;;;;;;7.95;6.00;;;5.90;99.90;;;;;;7385152;19;20329;-81
2023/02/12 01:48:56;;;;;;;7.30;6.07;;;5.90;99.90;;;;;;7384128;19;21185;-83
2023/02/12 01:51:21;;;;;;;6.82;5.35;;;5.90;99.90;;;;;;7384934;19;20868;-79
2023/02/12 01:53:49;;;;;;;6.30;5.27;;;5.90;99.90;;;;;;7383437;19;20316;-80
2023/02/12 01:56:15;;;;;;;9.13;7.03;;;5.80;99.90;;;;;;7383508;19;20849;-83
2023/02/12 01:58:42;;;;;;;8.05;6.82;;;5.90;99.90;;;;;;7384304;19;20345;-80
2023/02/12 02:01:12;;;;;;;7.85;5.97;;;5.90;99.90;;;;;;7382727;19;20301;-80
2023/02/12 02:03:38;;;;;;;9.45;6.00;;;5.90;99.90;;;;;;7384333;19;20360;-80
2023/02/12 02:06:10;;;;;;;7.95;6.53;;;5.90;99.90;;;;;;7386853;19;20312;-80
2023/02/12 02:08:37;;;;;;;9.55;6.82;;;5.90;99.90;;;;;;7386326;19;20384;-81
2023/02/12 02:14:31;;;;;;;10.50;7.78;;;5.90;99.90;;;;;;7384681;19;20323;-80
2023/02/12 02:16:33;;;;;;;12.23;7.70;;;5.90;99.90;;;;;;7385086;19;20320;-80
2023/02/12 02:19:01;;;;;;;7.55;6.38;;;5.90;99.90;;;;;;7384506;19;20316;-80
2023/02/12 02:21:50;;;;;;;7.30;5.95;;;5.80;99.90;;;;;;7386600;19;20312;-81
2023/02/12 02:24:52;;;;;;;9.15;5.68;;;5.90;99.90;;;;;;7281293;19;2019042;-81
2023/02/12 02:27:19;;;;;;;7.82;6.28;;;5.90;99.90;;;;;;7285141;19;2004285;-82
2023/02/12 02:30:22;;;;;;;7.32;6.32;;;5.80;99.90;;;;;;7387627;19;20348;-80
2023/02/12 02:32:54;;;;;;;7.97;6.13;;;5.90;99.90;;;;;;7180970;19;2004660;-79
2023/02/12 02:35:29;;;;;;;6.93;6.13;;;5.80;99.90;;;;;;7385994;19;20372;-81
2023/02/12 02:37:57;;;;;;;6.30;5.18;;;5.80;99.90;;;;;;7387708;19;20345;-80
2023/02/12 02:40:24;;;;;;;4.97;4.47;;;5.80;99.90;;;;;;7390339;19;20412;-78
2023/02/12 02:43:03;;;;;;;8.18;5.03;;;5.80;99.90;;;;;;7387069;19;20381;-79
2023/02/12 02:45:49;;;;;;;8.13;4.60;;;5.90;99.90;;;;;;7394065;19;20774;-83
2023/02/12 02:48:18;;;;;;;6.53;4.80;;;5.90;99.90;;;;;;7287680;19;2004298;-83
2023/02/12 02:50:51;;;;;;;9.15;5.38;;;5.90;99.90;;;;;;7384274;19;20348;-80
2023/02/12 02:53:21;;;;;;;9.18;5.65;;;5.90;99.90;;;;;;7385689;19;20332;-79
2023/02/12 02:55:53;;;;;;;7.72;5.43;;;5.80;99.90;;;;;;7387737;19;20332;-80
2023/02/12 02:58:45;;;;;;;6.95;5.25;;;5.80;99.90;;;;;;7386422;19;20332;-79
2023/02/12 03:01:25;;;;;;;8.03;5.50;;;5.80;99.90;;;;;;7282507;19;2005894;-84
2023/02/12 03:04:04;;;;;;;8.30;5.17;;;5.80;99.90;;;;;;7385281;19;20380;-80
2023/02/12 03:06:50;;;;;;;7.88;5.18;;;5.70;99.90;;;;;;7387403;19;20837;-82
2023/02/12 03:09:21;;;;;;;8.60;5.22;;;5.80;99.90;;;;;;7282991;19;2015508;-80
2023/02/12 03:11:47;;;;;;;7.82;5.10;;;5.80;99.90;;;;;;7382526;19;20309;-81
2023/02/12 03:14:24;;;;;;;7.70;5.20;;;5.80;99.90;;;;;;7386474;19;20313;-81
2023/02/12 03:17:01;;;;;;;9.17;5.50;;;5.80;99.90;;;;;;7385835;19;20332;-78
2023/02/12 03:19:49;;;;;;;8.57;5.30;;;5.80;99.90;;;;;;7386494;19;20940;-79
2023/02/12 03:22:24;;;;;;;8.98;4.97;;;5.80;99.90;;;;;;7284269;19;2004601;-80
2023/02/12 03:24:52;;;;;;;6.73;5.03;;;5.80;99.90;;;;;;7386390;19;20846;-81
2023/02/12 03:27:21;;;;;;;8.93;5.18;;;5.90;99.90;;;;;;7385346;19;20918;-85
2023/02/12 03:29:46;;;;;;;6.80;4.75;;;5.90;99.90;;;;;;7384379;19;20344;-80
2023/02/12 03:32:40;;;;;;;6.35;4.30;;;5.90;99.90;;;;;;7382919;19;20400;-82
2023/02/12 03:35:20;;;;;;;11.18;5.85;;;5.90;99.90;;;;;;7384824;19;20337;-80
2023/02/12 03:38:10;;;;;;;9.27;5.30;;;5.90;99.90;;;;;;7280860;19;2004649;-82
2023/02/12 03:40:41;;;;;;;7.32;5.45;;;5.80;99.90;;;;;;7382377;19;20363;-81
2023/02/12 03:43:22;;;;;;;6.57;5.10;;;5.80;99.90;;;;;;7384594;19;20317;-79
2023/02/12 03:46:03;;;;;;;9.13;5.28;;;5.90;99.90;;;;;;7275449;19;2004335;-81
2023/02/12 03:48:45;;;;;;;8.07;4.97;;;5.90;99.90;;;;;;7385100;19;20710;-79
2023/02/12 03:51:32;;;;;;;7.22;4.38;;;5.90;99.90;;;;;;7282233;19;2004209;-81
2023/02/12 03:53:57;;;;;;;9.82;5.38;;;5.90;99.90;;;;;;7384115;19;20332;-80
2023/02/12 03:56:26;;;;;;;8.43;5.47;;;5.90;99.90;;;;;;7383683;19;20324;-79
2023/02/12 03:58:51;;;;;;;10.50;5.27;;;5.90;99.90;;;;;;7386132;19;20743;-79
2023/02/12 04:01:17;;;;;;;7.80;5.07;;;5.90;99.90;;;;;;7383859;19;20329;-87
2023/02/12 04:03:43;;;;;;;8.03;5.60;;;5.80;99.90;;;;;;7383945;19;20404;-80
2023/02/12 04:06:24;;;;;;;8.20;5.40;;;5.80;99.90;;;;;;7382459;19;20845;-80
2023/02/12 04:08:49;;;;;;;9.10;5.28;;;5.80;99.90;;;;;;7280724;19;2004410;-80
2023/02/12 04:11:18;;;;;;;6.30;4.03;;;5.80;99.90;;;;;;7383949;19;20396;-80
2023/02/12 04:14:04;;;;;;;9.13;5.00;;;5.90;99.90;;;;;;7384046;19;20369;-80
2023/02/12 04:16:50;;;;;;;10.07;5.55;;;5.90;99.90;;;;;;7384777;19;20307;-84
2023/02/12 04:19:19;;;;;;;7.75;5.30;;;5.80;99.90;;;;;;7282362;19;2004436;-80
2023/02/12 04:22:01;;;;;;;10.70;5.55;;;5.80;99.90;;;;;;7383628;19;20344;-81
2023/02/12 04:24:34;;;;;;;7.00;4.95;;;5.80;99.90;;;;;;7384061;19;20317;-81
2023/02/12 04:27:20;;;;;;;11.60;5.60;;;5.80;99.90;;;;;;7383251;19;20317;-80
2023/02/12 04:29:54;;;;;;;7.13;4.68;;;5.80;99.90;;;;;;7280632;19;2004266;-79
2023/02/12 04:32:32;;;;;;;7.57;4.22;;;5.90;99.90;;;;;;7382396;19;20817;-84
2023/02/12 04:35:11;;;;;;;6.77;4.40;;;5.90;99.90;;;;;;7383071;19;20359;-78
2023/02/12 04:37:40;;;;;;;7.78;4.82;;;5.90;99.90;;;;;;7380459;19;20324;-83
2023/02/12 04:40:08;;;;;;;8.73;5.10;;;5.80;99.90;;;;;;7382101;19;20319;-79
2023/02/12 04:42:44;;;;;;;7.60;5.05;;;5.80;99.90;;;;;;7383461;19;20348;-82
2023/02/12 04:45:10;;;;;;;10.07;4.50;;;5.80;99.90;;;;;;7285187;19;2020170;-80
2023/02/12 04:47:36;;;;;;;4.20;3.70;;;5.70;99.90;;;;;;7390262;19;20312;-80
2023/02/12 04:50:02;;;;;;;8.57;4.93;;;5.80;99.90;;;;;;7389442;19;20318;-79
2023/02/12 04:52:27;;;;;;;8.40;5.10;;;5.80;99.90;;;;;;7389511;19;21027;-82
2023/02/12 04:54:53;;;;;;;7.38;4.55;;;5.80;99.90;;;;;;7389818;19;20396;-81
2023/02/12 04:57:18;;;;;;;5.40;4.30;;;5.80;99.90;;;;;;7388183;19;20304;-81
2023/02/12 04:59:44;;;;;;;6.87;4.77;;;5.80;99.90;;;;;;7387267;19;20340;-82
2023/02/12 05:02:09;;;;;;;7.80;5.13;;;5.80;99.90;;;;;;7384790;19;20321;-82
2023/02/12 05:04:35;;;;;;;10.37;5.67;;;5.90;99.90;;;;;;7388731;19;20772;-80
2023/02/12 05:07:03;;;;;;;7.80;4.78;;;5.80;99.90;;;;;;7387366;19;20317;-80
2023/02/12 05:09:28;;;;;;;5.88;4.47;;;5.80;99.90;;;;;;7388995;19;20329;-79
2023/02/12 05:11:54;;;;;;;10.20;5.55;;;5.80;99.90;;;;;;7389586;19;20992;-79
2023/02/12 05:14:19;;;;;;;8.30;4.77;;;5.80;99.90;;;;;;7387411;19;20315;-79
2023/02/12 05:16:45;;;;;;;8.63;5.15;;;5.70;99.90;;;;;;7387843;19;20663;-82
2023/02/12 05:19:11;;;;;;;8.20;5.13;;;5.70;99.90;;;;;;7386542;19;20308;-80
2023/02/12 05:21:37;;;;;;;7.00;4.57;;;5.70;99.90;;;;;;7389230;19;20340;-79
2023/02/12 05:24:02;;;;;;;5.90;3.92;;;5.80;99.90;;;;;;7387123;19;20375;-79
2023/02/12 05:26:28;;;;;;;8.05;4.43;;;5.80;99.90;;;;;;7390803;19;20895;-81
2023/02/12 05:28:54;;;;;;;7.90;4.60;;;5.90;99.90;;;;;;7388980;19;20341;-81
2023/02/12 05:31:19;;;;;;;5.07;4.07;;;5.90;99.90;;;;;;7399856;19;20317;-80
2023/02/12 05:33:45;;;;;;;9.87;4.23;;;5.90;99.90;;;;;;7390370;19;20348;-80
2023/02/12 05:36:13;;;;;;;4.07;3.40;;;5.90;99.90;;;;;;7388675;19;20933;-81
2023/02/12 05:38:38;;;;;;;6.50;4.55;;;5.90;99.90;;;;;;7388690;19;20352;-78
2023/02/12 05:41:05;;;;;;;6.60;4.73;;;6.00;99.90;;;;;;7387321;19;20972;-80
2023/02/12 05:43:31;;;;;;;9.60;5.03;;;6.00;99.90;;;;;;7385059;19;20696;-80
2023/02/12 05:46:00;;;;;;;6.20;4.10;;;6.00;99.90;;;;;;7387674;19;20373;-80
2023/02/12 05:48:26;;;;;;;5.97;4.00;;;6.10;99.90;;;;;;7385893;19;20380;-81
2023/02/12 05:50:52;;;;;;;6.18;4.10;;;6.00;99.90;;;;;;7386851;19;20341;-85
2023/02/12 05:53:17;;;;;;;5.50;3.95;;;6.10;99.90;;;;;;7386082;19;20346;-79
2023/02/12 05:55:43;;;;;;;5.13;3.73;;;6.10;99.90;;;;;;7385121;19;20324;-79
2023/02/12 05:58:08;;;;;;;6.78;3.83;;;6.10;99.90;;;;;;7385469;19;20329;-79
2023/02/12 06:00:34;;;;;;;6.50;3.80;;;6.10;99.90;;;;;;7385666;19;20324;-80
2023/02/12 06:02:59;;;;;;;6.23;4.33;;;6.10;99.90;;;;;;7384237;19;20316;-81
2023/02/12 06:05:25;;;;;;;5.45;3.80;;;6.10;99.90;;;;;;7386494;19;20352;-77
2023/02/12 06:07:51;;;;;;;6.77;4.10;;;6.10;99.90;;;;;;7383188;19;20771;-77
2023/02/12 06:10:16;;;;;;;8.35;4.00;;;6.10;99.90;;;;;;7382920;19;20336;-81
2023/02/12 06:12:42;;;;;;;6.13;3.70;;;6.10;99.90;;;;;;7381796;19;20449;-79
2023/02/12 06:15:08;;;;;;;5.55;3.85;;;6.20;99.90;;;;;;7382633;19;20319;-79
2023/02/12 06:17:33;;;;;;;4.63;3.80;;;6.10;99.90;;;;;;7384241;19;20345;-79
2023/02/12 06:19:59;;;;;;;6.07;4.05;;;6.10;99.90;;;;;;7384335;19;21039;-82
2023/02/12 06:22:24;;;;;;;5.10;4.10;;;6.10;99.90;;;;;;7381670;19;20305;-79
2023/02/12 06:24:50;;;;;;;6.90;3.95;;;6.10;99.90;;;;;;7381456;19;20340;-79
2023/02/12 06:27:15;;;;;;;7.40;3.87;;;6.10;99.90;;;;;;7379971;19;20341;-79
2023/02/12 06:29:42;;;;;;;4.03;3.70;;;6.10;99.90;;;;;;7383217;19;20740;-77
2023/02/12 06:32:07;;;;;;;5.10;3.70;;;6.00;99.90;;;;;;7385108;19;20326;-77
2023/02/12 06:34:33;;;;;;;6.55;3.63;;;6.00;99.90;;;;;;7382367;19;21211;-80
2023/02/12 06:36:58;;;;;;;6.23;3.67;;;6.00;99.90;;;;;;7382810;19;20336;-77
2023/02/12 06:39:24;;;;;;;4.85;3.80;;;6.00;99.90;;;;;;7381028;19;20336;-79
2023/02/12 06:41:51;;;;;;;6.03;4.03;;;5.90;99.90;;;;;;7381484;19;20353;-80
2023/02/12 06:44:16;;;;;;;4.20;3.15;;;5.80;99.90;;;;;;7383170;19;20775;-81
2023/02/12 06:46:42;;;;;;;4.07;3.30;;;5.80;99.90;;;;;;7381910;19;20416;-81
2023/02/12 06:49:09;;;;;;;4.28;3.08;;;5.80;99.90;;;;;;7383128;19;20602;-76
2023/02/12 06:51:37;;;;;;;5.28;3.35;;;5.80;99.90;;;;;;7382867;19;20337;-81
2023/02/12 06:54:03;;;;;;;3.78;3.30;;;5.90;99.90;;;;;;7383699;19;20320;-81
2023/02/12 06:56:29;;;;;;;3.83;3.47;;;5.90;99.90;;;;;;7384236;19;20656;-78
2023/02/12 06:58:56;;;;;;;5.32;4.30;;;6.00;99.90;;;;;;7383552;19;20325;-81
2023/02/12 07:01:24;;;;;;;5.20;3.65;;;5.90;99.90;;;;;;7383321;19;20328;-79
2023/02/12 07:03:51;;;;;;;4.40;3.60;;;5.80;99.90;;;;;;7382588;19;20316;-79
2023/02/12 07:06:17;;;;;;;3.40;3.10;;;5.80;99.90;;;;;;7381014;19;20898;-83
2023/02/12 07:08:43;;;;;;;3.42;3.13;;;5.80;99.90;;;;;;7386123;19;20368;-82
2023/02/12 07:11:08;;;;;;;3.83;3.23;;;5.80;99.90;;;;;;7387290;19;20337;-81
2023/02/12 07:13:34;;;;;;;4.57;3.65;;;5.90;99.90;;;;;;7384585;19;20763;-78
2023/02/12 07:16:07;;;;;;;4.50;3.57;;;5.90;99.90;;;;;;7384080;19;20312;-79
2023/02/12 07:18:33;;;;;;;7.03;5.15;;;5.80;99.90;;;;;;7383313;19;20874;-79
2023/02/12 07:20:59;;;;;;;4.57;4.00;;;5.80;99.90;;;;;;7382978;19;20443;-80
2023/02/12 07:23:24;;;;;;;4.97;4.35;;;5.90;99.90;;;;;;7383400;19;20317;-78
2023/02/12 07:25:57;;;;;;;4.33;3.93;;;5.90;99.90;;;;;;7379566;19;20384;-80
2023/02/12 07:28:23;;;;;;;3.72;3.42;;;5.90;99.90;;;;;;7383876;19;20308;-81
2023/02/12 07:30:48;;;;;;;5.40;3.87;;;5.90;99.90;;;;;;7383902;19;20869;-81
2023/02/12 07:33:14;;;;;;;4.80;3.83;;;6.00;99.90;;;;;;7381634;19;20318;-79
2023/02/12 07:35:40;;;;;;;7.60;3.70;;;6.00;99.90;;;;;;7382735;19;20909;-84
2023/02/12 07:38:05;;;;;;;4.00;3.10;;;6.00;99.90;;;;;;7384321;19;20316;-80
2023/02/12 07:40:31;;;;;;;6.50;4.80;;;6.10;99.90;;;;;;7383727;19;20339;-81
2023/02/12 07:42:57;;;;;;;6.25;4.82;;;6.10;99.90;;;;;;7384261;19;20344;-83
2023/02/12 07:45:23;;;;;;;4.43;3.83;;;6.10;99.90;;;;;;7383279;19;20326;-82
2023/02/12 07:47:49;;;;;;;3.63;3.30;;;6.00;99.90;;;;;;7382889;19;20375;-81
2023/02/12 07:50:14;;;;;;;6.03;3.72;;;6.10;99.90;;;;;;7382064;19;20328;-82
2023/02/12 07:52:40;;;;;;;5.63;3.72;;;6.20;99.90;;;;;;7383496;19;20614;-79
2023/02/12 07:55:06;;;;;;;5.87;4.10;;;6.30;99.90;;;;;;7382905;19;20325;-78
2023/02/12 07:57:33;;;;;;;5.55;4.15;;;6.30;99.90;;;;;;7381263;19;20799;-80
2023/02/12 07:59:58;;;;;;;8.07;4.53;;;6.30;99.90;;;;;;7382725;19;20352;-80
2023/02/12 08:02:25;;;;;;;8.87;4.40;;;6.30;99.90;;;;;;7380360;19;20341;-79
2023/02/12 08:04:57;;;;;;;7.70;4.13;;;6.20;99.90;;;;;;7380514;19;20336;-79
2023/02/12 08:07:22;;;;;;;8.55;6.05;;;6.20;99.90;;;;;;7381185;19;20318;-80
2023/02/12 08:09:48;;;;;;;7.53;5.43;;;6.20;99.90;;;;;;7381048;19;20328;-81
2023/02/12 08:12:14;;;;;;;8.03;4.63;;;6.20;99.90;;;;;;7381466;19;20432;-81
2023/02/12 08:14:39;;;;;;;4.25;3.80;;;6.30;99.90;;;;;;7381465;19;20384;-80
2023/02/12 08:17:05;;;;;;;4.50;3.27;;;6.40;99.90;;;;;;7384972;19;20932;-79
2023/02/12 08:19:30;;;;;;;5.68;3.70;;;6.40;99.90;;;;;;7387844;19;20320;-78
2023/02/12 08:21:56;;;;;;;5.67;3.80;;;6.40;99.90;;;;;;7386431;19;20352;-78
2023/02/12 08:24:22;;;;;;;3.38;3.08;;;6.30;99.90;;;;;;7386536;19;20405;-81
2023/02/12 08:26:49;;;;;;;5.82;3.35;;;6.30;99.90;;;;;;7395329;19;20356;-80
2023/02/12 08:29:19;;;;;;;3.53;3.03;;;6.40;99.90;;;;;;7387925;19;20325;-81
2023/02/12 08:31:48;;;;;;;4.32;3.63;;;6.50;99.90;;;;;;7388460;19;20987;-80
2023/02/12 08:34:24;;;;;;;5.82;3.60;;;6.50;99.90;;;;;;7391780;19;21170;-82
2023/02/12 08:36:50;;;;;;;6.57;3.75;;;6.40;99.90;;;;;;7393317;19;20874;-81
2023/02/12 08:39:16;;;;;;;5.68;3.67;;;6.50;99.90;;;;;;7393974;19;20403;-79
2023/02/12 08:41:42;;;;;;;5.78;3.75;;;6.60;99.90;;;;;;7392543;19;20341;-81
2023/02/12 08:44:09;;;;;;;5.63;3.97;;;6.60;99.90;;;;;;7393913;19;20321;-78
2023/02/12 08:46:36;;;;;;;5.45;4.00;;;6.60;99.90;;;;;;7395518;19;20349;-81
2023/02/12 08:49:03;;;;;;;6.55;4.50;;;6.70;99.90;;;;;;7392177;19;20313;-80
2023/02/12 08:51:30;;;;;;;5.00;3.60;;;6.60;99.90;;;;;;7391587;19;20388;-86
2023/02/12 08:54:00;;;;;;;6.30;4.28;;;6.70;99.90;;;;;;7393144;19;20344;-79
2023/02/12 08:56:27;;;;;;;10.18;7.00;;;6.80;99.90;;;;;;7396744;19;20316;-84
2023/02/12 08:58:52;;;;;;;6.18;4.30;;;6.80;99.90;;;;;;7394043;19;20411;-79
2023/02/12 09:01:22;;;;;;;7.70;4.18;;;6.80;99.90;;;;;;7392648;19;20324;-81
2023/02/12 09:03:48;;;;;;;5.87;3.80;;;6.80;99.90;;;;;;7394147;19;20344;-84
2023/02/12 09:06:14;;;;;;;7.28;4.68;;;6.90;99.90;;;;;;7392967;19;20316;-81
2023/02/12 09:08:39;;;;;;;7.95;4.45;;;6.90;99.90;;;;;;7392214;19;20333;-80
2023/02/12 09:11:06;;;;;;;4.63;3.57;;;6.90;99.90;;;;;;7392200;19;21060;-82
2023/02/12 09:13:31;;;;;;;9.52;4.65;;;7.00;99.90;;;;;;7390828;19;20375;-80
2023/02/12 09:15:59;;;;;;;6.97;4.20;;;7.00;99.90;;;;;;7390890;19;20345;-81
2023/02/12 09:18:24;;;;;;;6.25;4.55;;;7.10;99.90;;;;;;7389714;19;20384;-80
2023/02/12 09:20:53;;;;;;;8.35;4.25;;;7.10;99.90;;;;;;7390173;19;20317;-80
2023/02/12 09:23:19;;;;;;;8.88;6.25;;;7.10;99.90;;;;;;7390311;19;20316;-77
2023/02/12 09:25:45;;;;;;;10.07;5.95;;;7.10;99.90;;;;;;7390280;19;20333;-80
2023/02/12 09:28:12;;;;;;;5.47;4.63;;;7.20;99.90;;;;;;7377813;19;20329;-84
2023/02/12 09:30:38;;;;;;;8.60;4.93;;;7.20;99.90;;;;;;7386849;19;20341;-77
2023/02/12 09:33:05;;;;;;;8.40;6.07;;;7.30;99.90;;;;;;7384342;19;20349;-78
2023/02/12 09:35:33;;;;;;;9.02;4.88;;;7.30;99.90;;;;;;7387583;19;20308;-78
2023/02/12 09:37:59;;;;;;;8.15;5.78;;;7.30;99.90;;;;;;7388916;19;20407;-77
2023/02/12 09:40:30;;;;;;;14.00;5.93;;;7.30;99.90;;;;;;7386073;19;20347;-82
2023/02/12 09:43:19;;;;;;;5.70;4.35;;;7.30;99.90;;;;;;7383146;19;21031;-84
2023/02/12 09:46:15;;;;;;;8.13;4.70;;;7.30;99.90;;;;;;7279303;19;2004695;-78
2023/02/12 09:49:10;;;;;;;6.65;4.55;;;7.30;99.90;;;;;;7281269;19;2019777;-77
2023/02/12 09:51:37;;;;;;;32.38;17.92;;;7.30;99.90;;;;;;7393465;19;20309;-81
2023/02/12 09:54:11;;;;;;;26.30;13.25;;;7.30;99.90;;;;;;7393312;19;20317;-80
2023/02/12 09:56:37;;;;;;;35.17;23.63;;;7.30;99.90;;;;;;7395980;19;20332;-80
2023/02/12 09:59:05;;;;;;;35.17;21.38;;;7.30;99.90;;;;;;7394722;19;20309;-80
2023/02/12 10:01:30;;;;;;;20.77;11.45;;;7.20;99.90;;;;;;7398130;19;20353;-81
2023/02/12 10:03:57;;;;;;;14.50;7.90;;;7.10;99.90;;;;;;7394331;19;20953;-79
2023/02/12 10:06:32;;;;;;;13.97;6.47;;;7.00;99.90;;;;;;7395000;19;20813;-80
2023/02/12 10:09:02;;;;;;;10.80;5.70;;;7.10;99.90;;;;;;7397050;19;20860;-82
2023/02/12 10:11:35;;;;;;;12.75;6.80;;;7.10;99.90;;;;;;7398530;19;20313;-78
2023/02/12 10:14:36;;;;;;;10.80;5.50;;;7.00;99.90;;;;;;7393013;19;20886;-79
2023/02/12 10:17:21;;;;;;;9.43;5.82;;;6.90;99.90;;;;;;5878228;19;10001498;-85
2023/02/12 10:20:17;;;;;;;7.70;5.97;;;6.90;99.90;;;;;;7295170;19;2004285;-86
2023/02/12 10:23:14;;;;;;;9.85;6.30;;;6.90;99.90;;;;;;7293762;19;2007154;-82
2023/02/12 10:25:47;;;;;;;11.43;6.07;;;6.90;99.90;;;;;;7396073;19;20365;-82
2023/02/12 10:28:26;;;;;;;13.52;7.25;;;6.90;99.90;;;;;;7295048;19;2004593;-87
2023/02/12 10:30:59;;;;;;;10.05;5.95;;;6.90;99.90;;;;;;7398107;19;20347;-82
2023/02/12 10:33:35;;;;;;;11.25;6.30;;;6.90;99.90;;;;;;7393787;19;20337;-79
2023/02/12 10:36:18;;;;;;;14.10;7.38;;;6.90;99.90;;;;;;7388241;19;20381;-80
2023/02/12 10:38:47;;;;;;;12.63;7.18;;;6.90;99.90;;;;;;7284136;19;2018213;-79
2023/02/12 10:41:13;;;;;;;19.05;6.85;;;7.00;99.90;;;;;;7386659;19;20331;-80
2023/02/12 10:43:39;;;;;;;13.85;6.30;;;7.10;99.90;;;;;;7388373;19;20965;-80
2023/02/12 10:46:05;;;;;;;12.97;7.77;;;7.10;99.90;;;;;;7390759;19;20328;-78
2023/02/12 10:48:37;;;;;;;12.40;8.07;;;7.10;99.90;;;;;;7391648;19;20337;-78
2023/02/12 10:51:24;;;;;;;12.23;7.80;;;7.00;99.90;;;;;;7392169;19;20368;-79
2023/02/12 10:53:49;;;;;;;16.05;9.13;;;7.10;99.90;;;;;;7286598;19;2006042;-79
2023/02/12 10:56:18;;;;;;;17.60;9.23;;;7.10;99.90;;;;;;7389058;19;20400;-81
2023/02/12 10:59:00;;;;;;;14.05;8.13;;;7.20;99.90;;;;;;7389955;19;20403;-78
2023/02/12 11:01:36;;;;;;;14.40;6.68;;;7.20;99.90;;;;;;7423624;19;20332;-82
2023/02/12 11:04:25;;;;;;;12.00;6.45;;;7.10;99.90;;;;;;7422258;19;20390;-78
2023/02/12 11:07:06;;;;;;;9.40;6.18;;;7.00;99.90;;;;;;7320625;19;2004325;-80
2023/02/12 11:09:45;;;;;;;17.05;9.15;;;7.00;99.90;;;;;;7424386;19;20344;-85
2023/02/12 11:12:30;;;;;;;16.45;7.93;;;7.00;99.90;;;;;;7321126;19;2004506;-78
2023/02/12 11:15:22;;;;;;;15.20;7.75;;;7.10;99.90;;;;;;7419268;19;20344;-78
2023/02/12 11:17:59;;;;;;;10.15;5.68;;;7.20;99.90;;;;;;7315247;19;2004565;-77
2023/02/12 11:20:29;;;;;;;12.27;6.20;;;7.30;99.90;;;;;;7419279;19;20376;-79
2023/02/12 11:23:00;;;;;;;12.53;6.03;;;7.20;99.90;;;;;;7403370;19;20880;-76
2023/02/12 11:25:31;;;;;;;11.75;6.80;;;7.20;99.90;;;;;;6031911;19;10001105;-78
2023/02/12 11:28:13;;;;;;;14.40;7.30;;;7.20;99.90;;;;;;7417948;19;20361;-79
2023/02/12 11:30:49;;;;;;;11.02;6.55;;;7.30;99.90;;;;;;7416532;19;20336;-79
2023/02/12 11:33:30;;;;;;;14.02;6.57;;;7.30;99.90;;;;;;7312655;19;2020054;-80
2023/02/12 11:36:13;;;;;;;13.37;7.03;;;7.30;99.90;;;;;;7422282;19;20355;-79
2023/02/12 11:38:46;;;;;;;10.73;6.68;;;7.10;99.90;;;;;;7419683;19;20343;-79
2023/02/12 11:41:29;;;;;;;11.52;5.85;;;7.20;99.90;;;;;;7316841;19;2013996;-81
2023/02/12 11:44:19;;;;;;;15.10;5.97;;;7.40;99.90;;;;;;5164943;19;10001695;-81
2023/02/12 11:46:55;;;;;;;13.85;5.95;;;7.50;99.90;;;;;;7311340;19;2019686;-78
2023/02/12 11:49:29;;;;;;;10.68;6.13;;;7.60;99.90;;;;;;7416941;19;20451;-81
2023/02/12 11:51:55;;;;;;;11.88;7.78;;;7.70;99.90;;;;;;7421324;19;21004;-81
2023/02/12 11:54:22;;;;;;;17.37;8.20;;;7.60;99.90;;;;;;7419041;19;20315;-79
2023/02/12 11:56:48;;;;;;;13.00;5.75;;;7.60;99.90;;;;;;7422207;19;21192;-80
2023/02/12 11:59:32;;;;;;;10.57;4.78;;;7.60;99.90;;;;;;7423998;19;20319;-81
2023/02/12 12:02:00;;;;;;;11.48;5.45;;;7.70;99.90;;;;;;6001652;19;10001204;-81
2023/02/12 12:04:26;;;;;;;12.47;5.23;;;7.70;99.90;;;;;;7411612;19;20319;-79
2023/02/12 12:07:00;;;;;;;14.27;5.55;;;7.80;99.90;;;;;;7416254;19;20342;-80
2023/02/12 12:09:36;;;;;;;9.50;4.70;;;7.70;99.90;;;;;;6124687;19;10001151;-79
2023/02/12 12:12:16;;;;;;;9.88;5.10;;;7.70;99.90;;;;;;6087780;19;10001479;-78
2023/02/12 12:20:28;;;;;;;9.25;4.30;;;7.80;99.90;;;;;;7285197;19;2004311;-78
2023/02/12 12:23:04;;;;;;;11.60;4.75;;;7.80;99.90;;;;;;7383902;19;20373;-79
2023/02/12 12:25:41;;;;;;;7.05;3.28;;;7.90;99.90;;;;;;7386114;19;20313;-79
2023/02/12 12:28:27;;;;;;;8.07;4.07;;;7.90;99.90;;;;;;7385654;19;20317;-81
2023/02/12 12:31:01;;;;;;;6.20;3.78;;;7.90;99.90;;;;;;7283879;19;2004744;-77
2023/02/12 12:33:49;;;;;;;8.13;4.20;;;7.90;99.90;;;;;;7384122;19;20341;-82
2023/02/12 12:36:26;;;;;;;8.25;4.22;;;8.00;99.90;;;;;;7282641;19;2004849;-83
2023/02/12 12:38:58;;;;;;;9.55;3.88;;;8.10;99.90;;;;;;7386140;19;20351;-79
2023/02/12 12:41:33;;;;;;;9.50;3.93;;;8.20;99.90;;;;;;5976332;19;10001623;-79
2023/02/12 12:44:05;;;;;;;8.70;4.25;;;8.10;99.90;;;;;;7382579;19;20353;-80
2023/02/12 12:46:37;;;;;;;11.63;4.60;;;8.10;99.90;;;;;;7384201;19;20386;-78
2023/02/12 12:49:19;;;;;;;8.57;3.90;;;8.10;99.90;;;;;;7384555;19;20323;-80
2023/02/12 12:51:59;;;;;;;6.60;3.50;;;8.10;99.90;;;;;;7281075;19;2019105;-82
2023/02/12 12:54:37;;;;;;;10.95;4.07;;;8.10;99.90;;;;;;7387474;19;20930;-81
2023/02/12 12:57:15;;;;;;;9.33;3.90;;;8.10;99.90;;;;;;7387114;19;20327;-80
2023/02/12 12:59:54;;;;;;;6.82;3.15;;;8.00;99.90;;;;;;7282899;19;2004406;-79
2023/02/12 13:02:57;;;;;;;7.55;3.40;;;8.00;99.90;;;;;;7388497;19;20329;-78
2023/02/12 13:05:35;;;;;;;9.88;3.50;;;7.90;99.90;;;;;;7285199;19;2004238;-82
2023/02/12 13:08:19;;;;;;;5.97;3.10;;;7.90;99.90;;;;;;7384456;19;20327;-79
2023/02/12 13:10:47;;;;;;;6.97;3.38;;;7.90;99.90;;;;;;7280425;19;2019040;-80
2023/02/12 13:13:30;;;;;;;8.52;2.88;;;7.80;99.90;;;;;;7383175;19;20428;-79
2023/02/12 13:16:01;;;;;;;5.88;3.35;;;7.70;99.90;;;;;;7384615;19;20328;-80
2023/02/12 13:18:45;;;;;;;5.40;2.70;;;7.80;99.90;;;;;;7386133;19;20312;-81
2023/02/12 13:21:26;;;;;;;5.53;3.05;;;7.80;99.90;;;;;;7384431;19;20423;-83